Time;durP1;ratioP1;P1;durP2;ratioP2;P2;SDS_P1;SDS_P2;PMS_P1;PMS_P2;Temp;Humidity;BMP_temperature;BMP_pressure;BME280_temperature;BME280_humidity;BME280_pressure;Samples;Min_cycle;Max_cycle;Signal;HPM_P1;HPM_P2
2023/12/08 00:00:37;;;;;;;21.10;14.27;;;3.00;94.20;;;4.40;68.13;101278.88;3082416;46;20511;-66
2023/12/08 00:03:06;;;;;;;22.93;13.77;;;3.00;94.20;;;4.41;67.83;101270.13;3082225;46;20989;-65
2023/12/08 00:05:34;;;;;;;20.37;14.97;;;3.00;94.10;;;4.41;67.83;101271.88;3082552;46;20455;-66
2023/12/08 00:08:03;;;;;;;19.20;12.90;;;3.00;93.90;;;4.36;67.77;101277.47;3082359;46;20458;-66
2023/12/08 00:10:31;;;;;;;17.57;12.97;;;3.00;93.80;;;4.38;67.86;101266.91;3082475;46;20457;-66
2023/12/08 00:13:00;;;;;;;22.37;13.90;;;3.00;93.80;;;4.43;67.94;101265.59;3081948;46;20486;-66
2023/12/08 00:15:28;;;;;;;20.47;14.03;;;3.00;93.80;;;4.45;67.62;101247.25;3082316;46;20947;-65
2023/12/08 00:17:56;;;;;;;19.67;13.33;;;3.00;93.70;;;4.50;67.52;101253.75;3082342;46;20434;-66
2023/12/08 00:20:25;;;;;;;18.37;12.63;;;3.00;93.80;;;4.47;67.27;101250.56;3082340;46;20459;-66
2023/12/08 00:22:54;;;;;;;20.23;13.77;;;3.10;93.60;;;4.50;67.03;101245.09;3081319;46;20438;-66
2023/12/08 00:25:22;;;;;;;20.07;12.90;;;3.10;93.60;;;4.52;67.10;101237.97;3081993;46;20427;-66
2023/12/08 00:27:51;;;;;;;20.90;14.73;;;3.10;93.50;;;4.55;66.66;101229.91;3081558;46;20552;-66
2023/12/08 00:30:20;;;;;;;16.47;11.20;;;3.10;93.50;;;4.57;66.71;101226.25;3082144;46;20442;-66
2023/12/08 00:32:48;;;;;;;20.13;11.53;;;3.10;93.40;;;4.55;66.58;101222.09;3081682;46;20579;-66
2023/12/08 00:35:18;;;;;;;15.10;11.13;;;3.20;93.30;;;4.57;66.27;101220.19;3081633;46;21006;-64
2023/12/08 00:37:46;;;;;;;14.13;10.97;;;3.10;93.20;;;4.60;66.56;101204.31;3081370;46;20427;-65
2023/12/08 00:40:18;;;;;;;15.70;11.53;;;3.20;93.30;;;4.63;66.61;101193.66;3081532;46;20434;-67
2023/12/08 00:42:47;;;;;;;19.50;11.63;;;3.20;93.30;;;4.66;66.24;101186.38;3081307;46;20466;-64
2023/12/08 00:45:16;;;;;;;15.60;10.77;;;3.20;93.40;;;4.69;66.34;101182.72;3081970;46;20507;-66
2023/12/08 00:47:44;;;;;;;15.30;10.90;;;3.20;93.40;;;4.71;66.11;101180.81;3081865;46;20434;-66
2023/12/08 00:50:13;;;;;;;17.17;11.40;;;3.20;93.30;;;4.72;66.20;101174.66;3081887;46;21078;-67
2023/12/08 00:52:41;;;;;;;13.77;10.70;;;3.20;93.20;;;4.74;66.02;101164.91;3081491;46;21024;-67
2023/12/08 00:55:10;;;;;;;14.47;9.80;;;3.20;93.20;;;4.73;65.35;101165.88;3081742;46;20473;-65
2023/12/08 00:57:38;;;;;;;16.23;10.27;;;3.20;92.90;;;4.73;65.39;101168.50;3081710;46;21038;-65
2023/12/08 01:00:07;;;;;;;12.33;10.17;;;3.20;92.80;;;4.75;65.78;101156.16;3081489;46;21021;-66
2023/12/08 01:02:36;;;;;;;14.57;9.63;;;3.20;92.90;;;4.73;65.28;101156.25;3081432;46;20435;-66
2023/12/08 01:05:08;;;;;;;18.23;11.30;;;3.30;92.70;;;4.74;64.84;101159.69;3081654;46;21067;-65
2023/12/08 01:07:36;;;;;;;14.50;10.00;;;3.30;92.60;;;4.74;64.63;101151.88;3081666;46;20461;-66
2023/12/08 01:10:05;;;;;;;14.47;9.93;;;3.20;92.40;;;4.74;64.81;101155.31;3081483;46;20481;-66
2023/12/08 01:12:33;;;;;;;16.13;10.03;;;3.30;92.50;;;4.79;64.66;101136.69;3081391;46;20467;-66
2023/12/08 01:15:02;;;;;;;11.57;8.70;;;3.30;92.50;;;4.78;64.67;101135.03;3081141;46;21113;-64
2023/12/08 01:17:30;;;;;;;13.13;9.80;;;3.30;92.40;;;4.80;64.67;101130.53;3081358;46;20436;-65
2023/12/08 01:19:59;;;;;;;13.63;10.43;;;3.30;92.40;;;4.82;64.65;101125.19;3081287;46;20451;-66
2023/12/08 01:22:27;;;;;;;13.17;9.63;;;3.30;92.30;;;4.82;64.59;101113.78;3081226;46;20463;-65
2023/12/08 01:24:56;;;;;;;15.37;9.77;;;3.30;92.30;;;4.81;64.41;101106.09;3081067;46;20467;-66
2023/12/08 01:27:24;;;;;;;12.77;9.87;;;3.30;92.10;;;4.81;64.18;101103.50;3080912;46;20439;-64
2023/12/08 01:29:53;;;;;;;12.43;9.77;;;3.30;92.10;;;4.82;64.27;101086.91;3081316;46;20432;-66
2023/12/08 01:32:21;;;;;;;12.03;8.77;;;3.30;92.10;;;4.79;64.03;101084.53;3081016;46;20443;-67
2023/12/08 01:34:50;;;;;;;15.40;10.27;;;3.30;92.00;;;4.79;64.30;101079.34;3080610;46;21027;-66
2023/12/08 01:37:18;;;;;;;12.27;8.87;;;3.30;92.00;;;4.80;64.29;101075.78;3081141;46;20437;-66
2023/12/08 01:39:46;;;;;;;15.37;9.87;;;3.30;92.00;;;4.82;64.25;101078.25;3081275;46;21024;-66
2023/12/08 01:42:15;;;;;;;14.47;9.00;;;3.30;92.10;;;4.80;63.78;101073.97;3080730;46;20466;-66
2023/12/08 01:44:43;;;;;;;11.47;8.93;;;3.30;91.80;;;4.79;63.83;101077.56;3080698;46;21041;-66
2023/12/08 01:47:12;;;;;;;11.33;8.77;;;3.30;91.80;;;4.75;63.50;101077.94;3081165;46;20446;-67
2023/12/08 01:49:41;;;;;;;12.00;9.03;;;3.30;91.70;;;4.72;63.63;101071.22;3080711;46;20549;-66
2023/12/08 01:52:18;;;;;;;12.67;9.17;;;3.30;91.60;;;4.72;63.65;101068.59;3081092;46;20466;-65
2023/12/08 01:54:46;;;;;;;12.23;9.10;;;3.30;91.60;;;4.75;63.71;101059.69;3080649;46;20587;-65
2023/12/08 01:57:14;;;;;;;14.03;9.67;;;3.30;91.70;;;4.68;63.42;101067.19;3080952;46;20548;-66
2023/12/08 01:59:43;;;;;;;12.50;8.60;;;3.30;91.40;;;4.67;63.49;101069.94;3080464;46;21115;-66
2023/12/08 02:02:13;;;;;;;13.17;9.37;;;3.30;91.30;;;4.59;63.36;101072.34;3080560;46;20434;-66
2023/12/08 02:04:49;;;;;;;13.27;9.07;;;3.30;91.30;;;4.59;63.75;101061.91;3080534;46;20439;-66
2023/12/08 02:07:18;;;;;;;11.83;9.00;;;3.30;91.40;;;4.60;63.47;101056.59;3080619;46;20438;-66
2023/12/08 02:09:47;;;;;;;11.57;8.93;;;3.20;91.30;;;4.54;63.30;101053.69;3081749;46;20427;-66
2023/12/08 02:12:15;;;;;;;11.63;9.13;;;3.20;91.20;;;4.53;63.48;101052.00;3083548;46;20451;-66
2023/12/08 02:14:50;;;;;;;14.33;9.23;;;3.20;91.20;;;4.51;63.48;101043.50;3080696;46;20461;-66
2023/12/08 02:17:26;;;;;;;11.77;8.83;;;3.20;91.20;;;4.48;63.44;101038.53;3080837;46;20536;-66
2023/12/08 02:19:56;;;;;;;11.73;8.20;;;3.20;91.10;;;4.49;63.29;101046.22;3080811;46;20452;-66
2023/12/08 02:22:25;;;;;;;10.30;8.33;;;3.20;91.20;;;4.50;63.25;101047.06;3079300;46;20423;-62
2023/12/08 02:24:53;;;;;;;11.50;7.97;;;3.20;91.10;;;4.51;63.34;101033.09;3080334;46;20443;-65
2023/12/08 02:27:22;;;;;;;12.03;8.37;;;3.20;91.10;;;4.49;63.14;101027.19;3080437;46;21020;-66
2023/12/08 02:29:51;;;;;;;13.97;8.30;;;3.20;91.10;;;4.47;63.17;101019.47;3080740;46;20427;-66
2023/12/08 02:32:41;;;;;;;10.83;7.97;;;3.20;91.00;;;4.49;63.31;101014.16;3080144;46;20434;-66
2023/12/08 02:35:13;;;;;;;11.27;8.00;;;3.20;91.20;;;4.51;63.12;100994.00;3080397;46;20434;-66
2023/12/08 02:37:47;;;;;;;11.23;8.20;;;3.20;91.10;;;4.49;63.17;100998.50;3079838;46;20453;-66
2023/12/08 02:40:16;;;;;;;13.07;8.60;;;3.10;91.00;;;4.51;63.21;100996.59;3079493;46;20980;-66
2023/12/08 02:42:46;;;;;;;12.70;7.63;;;3.10;91.00;;;4.57;63.22;101001.28;3080028;46;20458;-66
2023/12/08 02:45:14;;;;;;;11.50;8.73;;;3.10;91.10;;;4.58;62.98;100982.94;3080610;46;20552;-66
2023/12/08 02:47:42;;;;;;;12.63;8.47;;;3.10;91.10;;;4.64;63.15;100985.00;3080699;46;20442;-65
2023/12/08 02:50:11;;;;;;;11.03;8.00;;;3.10;91.20;;;4.65;62.73;100991.88;3079619;46;21004;-68
2023/12/08 02:52:39;;;;;;;10.87;8.20;;;3.20;91.20;;;4.62;62.65;100988.69;3080310;46;21016;-67
2023/12/08 02:55:08;;;;;;;10.03;7.50;;;3.20;91.00;;;4.64;62.63;100998.03;3080494;46;20479;-65
2023/12/08 02:57:36;;;;;;;11.07;8.50;;;3.20;91.00;;;4.59;62.48;100996.75;3080013;46;20549;-65
2023/12/08 03:00:07;;;;;;;10.10;7.73;;;3.20;90.90;;;4.52;62.53;100993.84;3080398;46;20426;-66
2023/12/08 03:02:35;;;;;;;14.07;8.63;;;3.20;90.70;;;4.46;62.57;100993.56;3082587;46;20482;-66
2023/12/08 03:05:04;;;;;;;11.60;7.73;;;3.20;90.60;;;4.47;62.61;100990.00;3082465;46;20504;-66
2023/12/08 03:07:32;;;;;;;12.83;8.70;;;3.20;90.70;;;4.53;62.55;100994.69;3082582;46;20484;-65
2023/12/08 03:10:01;;;;;;;9.00;7.73;;;3.20;90.80;;;4.53;62.57;100990.31;3082770;46;20426;-63
2023/12/08 03:12:29;;;;;;;10.70;8.30;;;3.20;90.70;;;4.53;62.71;100985.09;3081310;46;20442;-66
2023/12/08 03:14:57;;;;;;;9.70;7.70;;;3.20;90.60;;;4.53;62.57;100973.84;3082185;46;21054;-66
2023/12/08 03:17:27;;;;;;;12.27;8.17;;;3.20;90.60;;;4.54;62.47;100978.09;3082397;46;20443;-66
2023/12/08 03:19:56;;;;;;;11.50;7.53;;;3.20;90.70;;;4.57;62.46;100967.41;3082616;46;20438;-66
2023/12/08 03:22:24;;;;;;;9.87;7.67;;;3.20;90.70;;;4.59;62.46;100957.66;3082486;46;20438;-65
2023/12/08 03:24:52;;;;;;;11.70;7.93;;;3.20;90.60;;;4.63;62.37;100964.28;3081979;46;21064;-66
2023/12/08 03:27:21;;;;;;;9.30;7.57;;;3.20;90.80;;;4.68;62.55;100964.72;3082550;46;20565;-66
2023/12/08 03:29:49;;;;;;;11.20;7.70;;;3.20;90.90;;;4.71;62.48;100960.06;3082504;46;20433;-66
2023/12/08 03:32:18;;;;;;;11.23;7.60;;;3.20;90.90;;;4.69;62.26;100942.91;3082624;43;20440;-65
2023/12/08 03:34:46;;;;;;;11.50;8.47;;;3.20;90.80;;;4.70;62.19;100945.41;3081720;46;20475;-66
2023/12/08 03:37:14;;;;;;;10.33;7.57;;;3.20;90.70;;;4.73;62.05;100949.53;3082143;46;20448;-64
2023/12/08 03:39:44;;;;;;;11.13;8.50;;;3.20;90.80;;;4.75;62.14;100931.97;3082355;46;20491;-66
2023/12/08 03:42:13;;;;;;;10.23;8.00;;;3.30;90.80;;;4.71;62.11;100931.38;3082353;46;20434;-66
2023/12/08 03:44:42;;;;;;;11.27;8.07;;;3.20;90.70;;;4.66;61.93;100949.19;3081613;46;20494;-66
2023/12/08 03:47:10;;;;;;;10.67;7.93;;;3.20;90.60;;;4.58;61.76;100945.63;3082583;46;20435;-66
2023/12/08 03:49:39;;;;;;;13.63;8.30;;;3.20;90.40;;;4.58;62.11;100948.22;3082068;46;20560;-66
2023/12/08 03:52:07;;;;;;;9.17;7.97;;;3.20;90.60;;;4.59;62.14;100942.88;3082300;46;20920;-66
2023/12/08 03:54:36;;;;;;;10.70;7.30;;;3.20;90.60;;;4.66;62.61;100932.72;3081599;46;20459;-66
2023/12/08 03:57:04;;;;;;;12.53;8.53;;;3.20;90.80;;;4.65;62.09;100931.09;3082128;46;20556;-64
2023/12/08 03:59:33;;;;;;;12.60;8.43;;;3.20;90.70;;;4.66;62.21;100935.34;3082375;46;20452;-66
2023/12/08 04:02:02;;;;;;;9.77;7.47;;;3.20;90.70;;;4.62;62.01;100919.16;3082300;46;20434;-65
2023/12/08 04:04:30;;;;;;;11.30;8.27;;;3.20;90.60;;;4.64;62.10;100924.22;3081716;46;20451;-65
2023/12/08 04:06:59;;;;;;;11.70;8.70;;;3.20;90.70;;;4.64;62.29;100924.22;3081870;46;20468;-66
2023/12/08 04:09:27;;;;;;;13.53;8.27;;;3.20;90.80;;;4.65;62.37;100936.31;3082231;46;20446;-66
2023/12/08 04:11:56;;;;;;;11.40;8.77;;;3.20;90.80;;;4.61;62.43;100927.91;3082255;46;20520;-66
2023/12/08 04:14:24;;;;;;;14.83;9.00;;;3.20;90.70;;;4.61;62.30;100932.31;3081519;46;20449;-66
2023/12/08 04:16:53;;;;;;;12.23;9.33;;;3.10;90.70;;;4.61;62.01;100924.50;3081646;46;20509;-66
2023/12/08 04:19:21;;;;;;;11.13;8.33;;;3.20;90.70;;;4.56;62.32;100932.72;3082060;46;20467;-64
2023/12/08 04:21:51;;;;;;;10.73;8.47;;;3.20;90.70;;;4.56;62.49;100937.94;3081766;46;20553;-66
2023/12/08 04:24:20;;;;;;;14.37;9.07;;;3.10;90.70;;;4.56;62.58;100931.91;3081318;46;20514;-65
2023/12/08 04:26:48;;;;;;;10.33;8.00;;;3.10;90.70;;;4.52;62.47;100930.47;3081563;46;21003;-66
2023/12/08 04:29:17;;;;;;;14.13;9.27;;;3.10;90.70;;;4.57;62.77;100934.34;3081804;46;20475;-66
2023/12/08 04:31:45;;;;;;;11.47;7.83;;;3.10;90.80;;;4.62;62.68;100929.56;3081666;46;20578;-66
2023/12/08 04:34:13;;;;;;;12.23;8.50;;;3.10;90.90;;;4.64;62.47;100934.66;3081123;46;20500;-64
2023/12/08 04:36:42;;;;;;;13.27;8.83;;;3.10;90.90;;;4.63;62.29;100933.84;3081580;46;20573;-64
2023/12/08 04:39:10;;;;;;;12.37;8.73;;;3.20;90.90;;;4.63;62.46;100930.41;3081891;46;21049;-68
2023/12/08 04:41:39;;;;;;;10.50;8.40;;;3.20;90.80;;;4.58;62.42;100925.59;3081584;46;20498;-66
2023/12/08 04:44:07;;;;;;;14.80;8.87;;;3.20;90.80;;;4.48;62.35;100934.31;3081521;46;20446;-66
2023/12/08 04:46:35;;;;;;;13.53;8.30;;;3.10;90.60;;;4.47;62.72;100930.06;3081773;46;20432;-66
2023/12/08 04:49:04;;;;;;;11.70;8.17;;;3.20;90.70;;;4.44;62.37;100932.94;3081706;46;20561;-66
2023/12/08 04:51:35;;;;;;;12.83;8.87;;;3.10;90.60;;;4.40;62.50;100934.13;3081811;46;20447;-66
2023/12/08 04:54:03;;;;;;;12.13;8.43;;;3.10;90.60;;;4.29;62.92;100923.81;3081273;46;20591;-65
2023/12/08 04:56:32;;;;;;;11.80;9.03;;;3.10;90.60;;;4.30;62.93;100920.25;3081377;46;20566;-64
2023/12/08 04:59:00;;;;;;;11.50;8.83;;;3.10;90.70;;;4.30;63.11;100928.06;3081820;46;20434;-65
2023/12/08 05:01:28;;;;;;;14.40;9.50;;;3.10;90.80;;;4.30;63.22;100922.88;3081570;46;20463;-66
2023/12/08 05:03:57;;;;;;;14.40;10.13;;;3.10;90.80;;;4.28;63.39;100912.56;3081138;46;20485;-67
2023/12/08 05:06:26;;;;;;;14.50;9.53;;;3.00;90.80;;;4.26;63.45;100914.47;3081251;46;20428;-66
2023/12/08 05:08:56;;;;;;;13.17;9.77;;;3.10;90.90;;;4.22;63.76;100922.66;3081216;46;20456;-66
2023/12/08 05:11:24;;;;;;;15.27;9.43;;;3.00;90.90;;;4.25;63.70;100922.41;3081820;46;20438;-66
2023/12/08 05:13:53;;;;;;;13.10;9.80;;;3.00;91.30;;;4.26;63.61;100918.84;3081250;46;20590;-66
2023/12/08 05:16:21;;;;;;;13.47;10.10;;;3.00;91.00;;;4.29;63.56;100918.59;3080468;46;21004;-66
2023/12/08 05:18:49;;;;;;;12.97;9.20;;;3.00;91.10;;;4.31;63.68;100916.69;3081592;46;20435;-66
2023/12/08 05:21:18;;;;;;;14.13;9.70;;;3.00;91.20;;;4.40;63.85;100910.69;3081314;46;20431;-66
2023/12/08 05:23:46;;;;;;;14.23;9.97;;;3.00;91.30;;;4.44;63.57;100912.09;3080478;46;20572;-66
2023/12/08 05:26:14;;;;;;;13.00;10.10;;;3.00;91.30;;;4.42;63.45;100914.00;3080825;46;20459;-66
2023/12/08 05:28:43;;;;;;;14.63;9.93;;;3.00;91.30;;;4.44;63.25;100904.28;3081751;46;21140;-66
2023/12/08 05:31:12;;;;;;;15.77;11.03;;;3.00;91.30;;;4.41;63.17;100907.97;3081103;46;21047;-65
2023/12/08 05:33:42;;;;;;;15.07;10.17;;;3.00;91.10;;;4.46;63.44;100904.97;3080737;46;20450;-67
2023/12/08 05:36:11;;;;;;;14.43;10.37;;;3.00;91.20;;;4.41;63.35;100894.09;3081379;46;21067;-67
2023/12/08 05:38:39;;;;;;;15.17;10.00;;;3.00;91.10;;;4.36;63.47;100894.50;3081272;46;20525;-66
2023/12/08 05:41:07;;;;;;;12.63;9.70;;;3.10;91.10;;;4.39;63.55;100893.41;3081324;46;20445;-66
2023/12/08 05:43:36;;;;;;;17.77;10.73;;;3.10;91.10;;;4.40;63.72;100884.63;3080798;46;20568;-65
2023/12/08 05:46:04;;;;;;;17.73;11.17;;;3.10;91.20;;;4.41;63.44;100881.09;3080741;46;20434;-67
2023/12/08 05:48:32;;;;;;;16.43;11.50;;;3.00;91.20;;;4.40;63.49;100879.41;3080588;46;20614;-66
2023/12/08 05:51:01;;;;;;;16.60;11.30;;;3.10;91.10;;;4.36;63.41;100880.66;3080921;46;20431;-66
2023/12/08 05:53:30;;;;;;;15.23;11.03;;;3.10;91.10;;;4.35;63.40;100876.41;3080659;46;21023;-66
2023/12/08 05:55:58;;;;;;;15.80;10.90;;;3.00;91.00;;;4.35;63.35;100881.63;3080910;46;20434;-66
2023/12/08 05:58:26;;;;;;;17.03;10.80;;;3.00;91.00;;;4.39;63.64;100883.00;3081239;46;20434;-65
2023/12/08 06:00:55;;;;;;;17.13;11.37;;;3.10;91.10;;;4.38;63.21;100887.38;3080844;46;20442;-64
2023/12/08 06:03:23;;;;;;;15.13;11.00;;;3.10;91.40;;;4.34;63.06;100890.38;3080606;46;20474;-66
2023/12/08 06:05:51;;;;;;;16.07;10.97;;;3.00;90.90;;;4.31;63.35;100886.25;3080627;46;21125;-66
2023/12/08 06:08:20;;;;;;;17.00;10.43;;;3.10;91.20;;;4.31;63.28;100883.66;3080494;46;20584;-64
2023/12/08 06:10:48;;;;;;;16.87;11.73;;;3.10;90.90;;;4.36;63.18;100886.69;3081114;46;21092;-66
2023/12/08 06:13:17;;;;;;;14.63;10.83;;;3.10;90.90;;;4.41;63.27;100886.28;3080136;46;20479;-66
2023/12/08 06:15:45;;;;;;;14.93;11.03;;;3.10;90.90;;;4.41;63.21;100873.25;3080643;46;21097;-66
2023/12/08 06:18:13;;;;;;;14.90;10.37;;;3.10;90.90;;;4.46;63.04;100871.09;3080792;46;20480;-66
2023/12/08 06:20:42;;;;;;;14.50;10.57;;;3.10;90.90;;;4.45;63.05;100866.81;3081083;46;20469;-66
2023/12/08 06:23:11;;;;;;;16.43;11.53;;;3.10;90.90;;;4.43;62.82;100866.13;3080267;46;20446;-66
2023/12/08 06:25:39;;;;;;;16.37;11.40;;;3.10;90.80;;;4.35;62.94;100866.78;3080166;46;20608;-65
2023/12/08 06:28:10;;;;;;;14.20;10.83;;;3.10;90.70;;;4.32;63.12;100855.81;3079558;46;20430;-65
2023/12/08 06:30:39;;;;;;;14.07;9.80;;;3.10;90.70;;;4.32;63.26;100859.25;3080186;46;20439;-66
2023/12/08 06:33:07;;;;;;;16.20;10.40;;;3.10;90.70;;;4.31;63.12;100861.97;3080418;46;20450;-66
2023/12/08 06:35:36;;;;;;;15.30;10.47;;;3.10;90.70;;;4.28;63.10;100859.66;3080542;46;20548;-66
2023/12/08 06:38:04;;;;;;;14.97;11.03;;;3.10;90.70;;;4.27;63.46;100858.81;3082851;46;21030;-66
2023/12/08 06:40:33;;;;;;;14.97;10.17;;;3.10;90.70;;;4.38;63.15;100852.69;3082941;46;20433;-66
2023/12/08 06:43:03;;;;;;;13.47;10.00;;;3.00;90.70;;;4.40;62.89;100854.19;3082498;46;20532;-67
2023/12/08 06:45:31;;;;;;;17.63;12.30;;;3.10;90.70;;;4.39;63.04;100856.94;3082684;46;20484;-65
2023/12/08 06:47:59;;;;;;;16.73;11.23;;;3.10;90.70;;;4.41;62.67;100855.03;3082777;46;20458;-64
2023/12/08 06:50:28;;;;;;;15.60;10.60;;;3.10;90.60;;;4.43;62.75;100853.94;3083020;46;20434;-66
2023/12/08 06:52:56;;;;;;;15.23;11.07;;;3.10;90.60;;;4.49;62.92;100857.81;3082338;46;21060;-65
2023/12/08 06:55:25;;;;;;;15.13;10.87;;;3.20;90.70;;;4.51;62.83;100845.47;3082671;43;21022;-65
2023/12/08 06:57:54;;;;;;;16.47;9.83;;;3.20;90.70;;;4.52;62.66;100855.75;3081854;46;20419;-66
2023/12/08 07:00:22;;;;;;;14.30;10.70;;;3.20;90.60;;;4.47;62.78;100844.09;3082429;46;20572;-66
2023/12/08 07:02:51;;;;;;;15.43;10.73;;;3.20;90.50;;;4.44;62.57;100839.97;3082597;46;20459;-66
2023/12/08 07:05:20;;;;;;;16.40;11.60;;;3.20;90.50;;;4.44;62.65;100844.34;3082897;46;20458;-66
2023/12/08 07:07:49;;;;;;;14.50;10.63;;;3.20;90.60;;;4.44;62.67;100850.38;3082849;46;20433;-66
2023/12/08 07:10:18;;;;;;;13.90;10.33;;;3.20;90.60;;;4.43;62.85;100845.28;3082718;46;20604;-65
2023/12/08 07:12:46;;;;;;;16.33;11.00;;;3.20;90.60;;;4.46;62.55;100848.47;3082334;46;20560;-66
2023/12/08 07:15:15;;;;;;;16.83;11.20;;;3.20;90.60;;;4.44;62.75;100839.13;3082678;46;21076;-66
2023/12/08 07:17:43;;;;;;;16.90;10.50;;;3.20;90.50;;;4.46;62.91;100842.44;3082413;46;20948;-65
2023/12/08 07:20:12;;;;;;;17.27;11.67;;;3.20;90.60;;;4.50;62.77;100846.41;3082192;46;20473;-66
2023/12/08 07:22:41;;;;;;;14.73;10.97;;;3.20;90.60;;;4.50;62.91;100843.81;3082260;46;20565;-66
2023/12/08 07:25:12;;;;;;;15.90;11.70;;;3.20;90.70;;;4.46;63.24;100845.03;3082816;46;20508;-66
2023/12/08 07:27:41;;;;;;;18.03;11.80;;;3.20;90.80;;;4.50;63.22;100846.41;3082320;46;20643;-68
2023/12/08 07:30:10;;;;;;;17.17;11.77;;;3.30;90.90;;;4.52;63.50;100839.28;3082205;46;20567;-66
2023/12/08 07:32:39;;;;;;;14.40;10.73;;;3.20;91.00;;;4.47;63.61;100844.09;3082331;46;20455;-64
2023/12/08 07:35:08;;;;;;;14.93;11.17;;;3.20;91.00;;;4.40;63.76;100842.94;3082397;46;20530;-66
2023/12/08 07:37:40;;;;;;;18.10;11.97;;;3.20;91.10;;;4.41;63.97;100855.03;3082436;46;20576;-66
2023/12/08 07:40:09;;;;;;;15.77;11.27;;;3.20;91.30;;;4.42;64.43;100854.09;3081853;43;20930;-68
2023/12/08 07:42:38;;;;;;;16.90;11.50;;;3.10;91.40;;;4.50;64.04;100859.44;3081769;46;20445;-66
2023/12/08 07:45:08;;;;;;;14.83;10.97;;;3.10;91.50;;;4.50;64.68;100854.22;3082237;46;20434;-66
2023/12/08 07:47:37;;;;;;;18.47;11.67;;;3.10;91.80;;;4.55;64.52;100850.28;3081719;46;20438;-65
2023/12/08 07:50:07;;;;;;;17.87;12.57;;;3.10;91.90;;;4.58;65.15;100857.00;3081766;46;20432;-66
2023/12/08 07:52:36;;;;;;;14.83;10.33;;;3.20;92.10;;;4.57;65.13;100860.56;3081988;46;20480;-66
2023/12/08 07:55:05;;;;;;;16.40;11.37;;;3.20;92.20;;;4.55;65.36;100847.66;3081712;46;20454;-65
2023/12/08 07:57:33;;;;;;;17.50;11.77;;;3.20;92.30;;;4.53;65.68;100864.41;3082171;46;20531;-66
2023/12/08 08:00:06;;;;;;;20.70;15.23;;;3.10;92.50;;;4.46;65.85;100855.47;3081819;46;20427;-65
2023/12/08 08:02:34;;;;;;;16.87;11.87;;;3.10;92.50;;;4.46;66.34;100860.66;3081264;46;20439;-66
2023/12/08 08:05:04;;;;;;;16.73;11.67;;;3.10;92.70;;;4.45;66.54;100862.44;3081632;46;20587;-66
2023/12/08 08:07:33;;;;;;;16.70;11.80;;;3.10;92.80;;;4.47;66.61;100859.72;3081924;46;20606;-65
2023/12/08 08:10:02;;;;;;;18.30;12.63;;;3.10;92.90;;;4.52;66.51;100850.53;3081456;46;20566;-66
2023/12/08 08:12:32;;;;;;;22.37;13.50;;;3.10;93.00;;;4.56;66.44;100848.50;3080890;46;20434;-65
2023/12/08 08:15:00;;;;;;;17.97;12.17;;;3.10;93.00;;;4.55;66.68;100846.84;3081638;46;20460;-66
2023/12/08 08:17:44;;;;;;;17.10;11.90;;;3.10;93.20;;;4.45;67.10;100835.56;3081089;43;20434;-66
2023/12/08 08:20:35;;;;;;;17.83;13.10;;;3.10;93.40;;;4.39;67.33;100830.91;3080697;46;20436;-68
2023/12/08 08:23:12;;;;;;;18.07;12.33;;;3.00;93.40;;;4.34;67.85;100827.84;3080697;46;20515;-64
2023/12/08 08:25:40;;;;;;;20.53;11.90;;;3.00;93.50;;;4.33;68.37;100832.25;3081477;46;20430;-66
2023/12/08 08:28:09;;;;;;;16.87;12.13;;;3.00;93.70;;;4.26;68.26;100830.28;3080687;43;20599;-65
2023/12/08 08:30:43;;;;;;;17.47;12.43;;;3.00;93.80;;;4.17;68.91;100831.09;3080817;46;20570;-66
2023/12/08 08:33:12;;;;;;;18.43;12.63;;;2.90;94.00;;;4.06;68.93;100832.81;3081450;46;20515;-65
2023/12/08 08:35:40;;;;;;;21.20;13.57;;;2.90;94.00;;;4.05;69.71;100828.56;3080982;46;20503;-66
2023/12/08 08:38:11;;;;;;;17.87;12.27;;;2.90;94.20;;;4.06;69.59;100830.22;3080528;46;20462;-66
2023/12/08 08:40:39;;;;;;;19.77;12.67;;;2.90;94.30;;;4.08;69.35;100838.75;3080520;46;21101;-64
2023/12/08 08:43:08;;;;;;;17.63;12.97;;;2.80;94.30;;;4.13;69.50;100832.31;3079447;46;21002;-63
2023/12/08 08:45:36;;;;;;;19.77;13.27;;;2.80;94.30;;;4.15;69.39;100835.59;3081196;46;20569;-65
2023/12/08 08:48:05;;;;;;;21.27;14.17;;;2.80;94.50;;;4.17;69.65;100841.50;3081187;46;21110;-65
2023/12/08 08:50:33;;;;;;;18.80;12.70;;;2.80;94.50;;;4.20;69.35;100849.06;3081047;46;20544;-66
2023/12/08 08:53:16;;;;;;;19.90;13.37;;;2.80;94.50;;;4.16;69.38;100845.06;3080600;46;20459;-64
2023/12/08 08:55:45;;;;;;;18.33;13.10;;;2.80;94.60;;;4.21;69.36;100848.91;3080159;46;21067;-66
2023/12/08 08:58:14;;;;;;;17.23;12.23;;;2.80;94.60;;;4.25;69.63;100844.28;3078313;46;20438;-66
2023/12/08 09:00:42;;;;;;;19.73;13.13;;;2.80;94.70;;;4.32;69.53;100850.63;3080607;46;20464;-66
2023/12/08 09:03:11;;;;;;;17.97;12.13;;;2.90;94.70;;;4.33;69.30;100857.47;3079579;46;20460;-64
2023/12/08 09:05:41;;;;;;;22.70;14.00;;;2.80;94.70;;;4.35;69.25;100856.38;3081116;46;21066;-66
2023/12/08 09:08:10;;;;;;;17.53;13.77;;;2.90;94.70;;;4.36;69.48;100862.41;3081233;46;20424;-66
2023/12/08 09:10:44;;;;;;;19.07;11.43;;;2.90;94.80;;;4.36;69.65;100863.25;3081277;46;20587;-63
2023/12/08 09:13:14;;;;;;;16.27;11.43;;;2.90;94.80;;;4.40;69.27;100869.00;3079829;46;20443;-65
2023/12/08 09:15:43;;;;;;;18.87;12.60;;;2.90;94.80;;;4.46;69.19;100871.09;3080768;46;20568;-66
2023/12/08 09:18:11;;;;;;;19.30;12.57;;;2.90;94.80;;;4.49;69.29;100863.03;3080920;46;20524;-67
2023/12/08 09:20:41;;;;;;;19.53;13.63;;;2.90;95.00;;;4.47;69.50;100870.16;3080588;46;21015;-66
2023/12/08 09:23:10;;;;;;;17.67;11.83;;;3.00;95.00;;;4.49;69.25;100868.22;3080792;46;20496;-66
2023/12/08 09:25:40;;;;;;;16.17;12.17;;;3.00;95.00;;;4.54;69.49;100866.06;3081007;46;20515;-66
2023/12/08 09:28:08;;;;;;;18.23;12.10;;;3.00;95.00;;;4.52;69.47;100860.97;3080416;46;20552;-66
2023/12/08 09:30:36;;;;;;;18.13;12.13;;;3.00;95.00;;;4.47;69.39;100864.94;3080334;46;20555;-66
2023/12/08 09:33:07;;;;;;;17.50;11.90;;;3.00;94.90;;;4.43;69.48;100855.72;3080600;46;20576;-64
2023/12/08 09:35:35;;;;;;;16.07;11.87;;;3.00;95.00;;;4.38;69.95;100855.28;3080121;44;20486;-64
2023/12/08 09:38:04;;;;;;;17.40;12.27;;;3.00;95.00;;;4.28;70.34;100854.44;3079261;46;20438;-66
2023/12/08 09:40:38;;;;;;;15.70;11.80;;;3.00;95.00;;;4.26;70.51;100853.72;3080259;46;20505;-65
2023/12/08 09:43:22;;;;;;;18.00;11.93;;;3.00;95.00;;;4.22;70.33;100866.19;3080060;46;21142;-65
2023/12/08 09:45:54;;;;;;;16.57;11.90;;;2.90;95.10;;;4.16;70.87;100861.50;3079854;46;20576;-66
2023/12/08 09:48:26;;;;;;;17.87;12.80;;;2.90;95.20;;;4.17;70.88;100862.31;3080346;46;20462;-66
2023/12/08 09:50:58;;;;;;;16.73;12.17;;;2.90;95.30;;;4.23;70.98;100867.03;3079838;46;20432;-65
2023/12/08 09:53:29;;;;;;;19.33;13.17;;;2.80;95.30;;;4.22;71.11;100854.97;3080510;46;21030;-66
2023/12/08 09:55:58;;;;;;;20.53;12.87;;;2.80;95.40;;;4.23;70.84;100857.41;3080792;46;20566;-66
2023/12/08 09:58:27;;;;;;;19.37;11.63;;;2.80;95.40;;;4.23;71.21;100856.63;3079964;46;20457;-67
2023/12/08 10:00:58;;;;;;;15.47;11.37;;;2.80;95.50;;;4.23;71.28;100846.19;3080323;46;20464;-64
2023/12/08 10:03:26;;;;;;;18.40;12.07;;;2.90;95.60;;;4.23;71.03;100843.59;3079810;46;20475;-67
2023/12/08 10:05:56;;;;;;;18.60;12.17;;;2.80;95.60;;;4.28;71.22;100836.22;3079159;43;20439;-68
2023/12/08 10:08:24;;;;;;;20.73;13.77;;;2.90;95.60;;;4.33;71.26;100836.63;3079498;46;20445;-68
2023/12/08 10:10:53;;;;;;;16.40;11.27;;;2.80;95.60;;;4.30;70.87;100829.91;3081977;46;20427;-63
2023/12/08 10:13:21;;;;;;;19.37;12.83;;;2.90;95.70;;;4.32;71.00;100829.78;3081192;46;20447;-66
2023/12/08 10:15:50;;;;;;;15.67;11.43;;;2.90;95.70;;;4.37;71.22;100819.78;3082194;46;20436;-66
2023/12/08 10:18:27;;;;;;;16.83;11.37;;;2.90;95.70;;;4.39;71.09;100810.06;3082808;46;20461;-66
2023/12/08 10:21:19;;;;;;;17.13;11.93;;;2.90;95.70;;;4.40;70.76;100798.66;3082470;46;20427;-66
2023/12/08 10:24:00;;;;;;;19.43;11.93;;;2.90;95.70;;;4.45;70.68;100799.09;3081252;46;20541;-66